Time;durP1;ratioP1;P1;durP2;ratioP2;P2;SDS_P1;SDS_P2;PMS_P1;PMS_P2;Temp;Humidity;BMP_temperature;BMP_pressure;BME280_temperature;BME280_humidity;BME280_pressure;Samples;Min_cycle;Max_cycle;Signal;HPM_P1;HPM_P2
2023/11/28 00:02:43;;;;;;;61.80;31.70;;;;;;;-0.17;76.57;98719.46;130240;1267;97967;-81
2023/11/28 00:05:49;;;;;;;63.60;32.80;;;;;;;-0.22;76.35;98717.60;130134;1263;98761;-81
2023/11/28 00:08:54;;;;;;;63.50;31.40;;;;;;;-0.23;76.56;98723.49;130264;1267;97971;-81
2023/11/28 00:12:00;;;;;;;65.00;31.60;;;;;;;-0.25;76.64;98715.97;130264;1265;97967;-81
2023/11/28 00:15:07;;;;;;;60.40;30.20;;;;;;;-0.22;76.65;98720.08;130315;1264;99021;-80
2023/11/28 00:18:13;;;;;;;62.20;30.80;;;;;;;-0.21;76.73;98725.08;130330;1264;99136;-81
2023/11/28 00:21:18;;;;;;;68.20;31.80;;;;;;;-0.20;76.89;98722.47;130259;1264;98472;-82
2023/11/28 00:24:24;;;;;;;67.90;30.20;;;;;;;-0.16;76.84;98719.77;130207;1264;99037;-81
2023/11/28 00:27:29;;;;;;;84.10;35.60;;;;;;;-0.09;76.84;98713.80;130247;1264;97953;-81
2023/11/28 00:30:35;;;;;;;79.20;33.00;;;;;;;0.02;77.00;98706.43;130150;1281;99611;-81
2023/11/28 00:33:40;;;;;;;69.10;31.90;;;;;;;0.11;76.98;98699.57;130304;1264;97959;-80
2023/11/28 00:36:46;;;;;;;65.50;31.20;;;;;;;0.18;77.03;98690.82;130231;1264;98061;-81
2023/11/28 00:39:52;;;;;;;61.90;31.40;;;;;;;0.22;76.97;98686.09;130174;1265;97993;-82
2023/11/28 00:42:57;;;;;;;61.90;32.10;;;;;;;0.27;76.96;98686.09;130227;1265;97970;-80
2023/11/28 00:46:04;;;;;;;61.50;31.10;;;;;;;0.28;76.85;98688.25;129934;1270;99029;-80
2023/11/28 00:49:12;;;;;;;65.90;32.00;;;;;;;0.29;76.76;98681.15;129995;1267;99129;-80
2023/11/28 00:52:18;;;;;;;62.70;31.30;;;;;;;0.27;76.78;98677.83;129698;1265;98841;-79
2023/11/28 00:55:24;;;;;;;65.10;32.60;;;;;;;0.22;76.86;98671.98;129862;1264;99148;-80
2023/11/28 00:58:29;;;;;;;64.30;31.70;;;;;;;0.15;76.66;98671.49;129957;1265;97977;-80
2023/11/28 01:01:35;;;;;;;64.80;30.80;;;;;;;0.07;76.83;98672.48;130071;1265;97983;-78
2023/11/28 01:04:40;;;;;;;64.90;31.40;;;;;;;-0.03;76.69;98665.06;129907;1267;97978;-80
2023/11/28 01:07:47;;;;;;;61.20;30.50;;;;;;;-0.14;76.64;98667.88;130215;1264;98646;-83
2023/11/28 01:10:52;;;;;;;65.10;30.10;;;;;;;-0.29;76.48;98667.70;130253;1263;98018;-81
2023/11/28 01:13:58;;;;;;;61.10;30.30;;;;;;;-0.43;76.70;98663.88;130227;1265;98182;-81
2023/11/28 01:17:06;;;;;;;57.50;29.70;;;;;;;-0.52;76.73;98666.55;130253;1264;98663;-81
2023/11/28 01:20:13;;;;;;;63.90;30.70;;;;;;;-0.60;76.64;98668.92;130244;1264;98064;-82
2023/11/28 01:23:20;;;;;;;63.20;30.70;;;;;;;-0.69;76.65;98665.79;130126;1279;98778;-82
2023/11/28 01:26:26;;;;;;;61.70;30.30;;;;;;;-0.77;76.68;98662.96;129997;1265;98012;-81
2023/11/28 01:29:33;;;;;;;58.50;29.30;;;;;;;-0.88;76.36;98662.20;130119;1270;97989;-79
2023/11/28 01:32:38;;;;;;;56.30;28.80;;;;;;;-0.97;76.50;98662.77;130107;1267;98054;-81
2023/11/28 01:35:44;;;;;;;61.00;29.10;;;;;;;-1.06;76.36;98655.90;129996;1268;98656;-81
2023/11/28 01:38:50;;;;;;;60.10;29.00;;;;;;;-1.16;76.54;98651.98;130117;1264;99161;-81
2023/11/28 01:41:55;;;;;;;67.30;29.90;;;;;;;-1.24;76.37;98646.68;130170;1267;98669;-82
2023/11/28 01:45:01;;;;;;;67.40;29.60;;;;;;;-1.34;76.46;98640.63;130588;1267;99145;-80
2023/11/28 01:48:24;;;;;;;59.80;27.90;;;;;;;-1.40;76.46;98635.99;130185;1268;98009;-80
2023/11/28 01:51:31;;;;;;;59.10;27.20;;;;;;;-1.38;76.43;98637.63;130143;1264;98089;-80
2023/11/28 01:54:36;;;;;;;57.70;26.60;;;;;;;-1.36;76.40;98638.14;130252;1263;99017;-81
2023/11/28 01:57:42;;;;;;;61.30;28.70;;;;;;;-1.34;76.25;98635.19;130189;1264;97954;-82
2023/11/28 02:00:49;;;;;;;63.50;29.00;;;;;;;-1.39;76.05;98633.34;130040;1265;98113;-81
2023/11/28 02:03:55;;;;;;;64.50;29.00;;;;;;;-1.42;76.15;98627.42;130226;1267;99154;-82
2023/11/28 02:07:02;;;;;;;63.70;29.40;;;;;;;-1.53;75.73;98629.34;130333;1266;98072;-81
2023/11/28 02:10:09;;;;;;;63.10;30.00;;;;;;;-1.55;76.13;98631.43;130261;1263;98080;-80
2023/11/28 02:13:15;;;;;;;64.80;29.20;;;;;;;-1.54;76.09;98631.15;130327;1265;99037;-80
2023/11/28 02:16:22;;;;;;;63.50;28.00;;;;;;;-1.56;76.19;98629.05;130289;1267;98085;-80
2023/11/28 02:19:28;;;;;;;61.10;28.50;;;;;;;-1.61;76.03;98624.86;129990;1285;98104;-80
2023/11/28 02:22:34;;;;;;;65.60;29.20;;;;;;;-1.64;76.10;98622.65;130121;1268;98740;-80
2023/11/28 02:25:44;;;;;;;63.60;30.30;;;;;;;-1.70;75.84;98616.83;130149;1267;98058;-80
2023/11/28 02:28:49;;;;;;;61.50;27.90;;;;;;;-1.81;75.47;98612.25;130106;1267;99180;-81
2023/11/28 02:31:55;;;;;;;62.20;30.40;;;;;;;-2.01;75.45;98611.98;130283;1268;97961;-81
2023/11/28 02:35:01;;;;;;;68.00;30.20;;;;;;;-2.05;75.73;98607.96;130163;1265;98014;-81
2023/11/28 02:38:07;;;;;;;57.40;28.60;;;;;;;-2.09;75.35;98601.30;130204;1268;99105;-81
2023/11/28 02:41:13;;;;;;;70.90;30.40;;;;;;;-2.21;75.67;98597.23;130227;1264;99164;-80
2023/11/28 02:44:19;;;;;;;69.70;30.80;;;;;;;-2.28;75.50;98592.20;130238;1268;99205;-80
2023/11/28 02:47:24;;;;;;;70.40;30.70;;;;;;;-2.39;75.51;98595.92;130282;1267;98656;-80
2023/11/28 02:50:30;;;;;;;69.00;31.20;;;;;;;-2.47;75.36;98595.36;130324;1263;97964;-79
2023/11/28 02:53:35;;;;;;;76.50;32.70;;;;;;;-2.58;75.50;98588.79;130145;1267;99169;-80
2023/11/28 02:56:41;;;;;;;80.90;32.70;;;;;;;-2.61;75.61;98587.61;130087;1264;98670;-81
2023/11/28 02:59:46;;;;;;;74.40;32.80;;;;;;;-2.60;75.78;98584.61;130258;1265;99425;-81
2023/11/28 03:02:52;;;;;;;76.30;32.10;;;;;;;-2.67;75.02;98580.77;130207;1267;99204;-81
2023/11/28 03:05:57;;;;;;;79.20;33.60;;;;;;;-2.73;75.54;98575.80;130223;1267;98037;-81
2023/11/28 03:09:03;;;;;;;77.80;31.80;;;;;;;-2.78;75.65;98568.33;130232;1267;98268;-80
2023/11/28 03:12:09;;;;;;;70.10;29.80;;;;;;;-2.82;75.49;98561.46;130187;1264;98731;-80
2023/11/28 03:15:15;;;;;;;61.10;27.40;;;;;;;-2.79;75.67;98558.98;130193;1268;99196;-81
2023/11/28 03:18:20;;;;;;;66.30;28.30;;;;;;;-2.84;75.51;98556.42;130273;1268;97987;-80
2023/11/28 03:21:26;;;;;;;60.30;26.00;;;;;;;-2.84;75.97;98551.17;130211;1264;98050;-82
2023/11/28 03:24:32;;;;;;;69.40;29.00;;;;;;;-2.73;75.95;98548.02;130341;1268;98050;-81
2023/11/28 03:27:38;;;;;;;69.50;30.80;;;;;;;-2.68;75.67;98547.26;130034;1264;98688;-81
2023/11/28 03:30:43;;;;;;;72.30;31.60;;;;;;;-2.64;76.06;98543.69;130338;1264;98644;-81
2023/11/28 03:33:49;;;;;;;70.40;31.90;;;;;;;-2.64;75.13;98537.20;130304;1265;99091;-81
2023/11/28 03:36:54;;;;;;;79.80;35.90;;;;;;;-2.64;75.28;98538.81;130251;1265;98643;-86
2023/11/28 03:40:00;;;;;;;77.60;34.00;;;;;;;-2.69;75.18;98533.09;130185;1280;98816;-83
2023/11/28 03:43:06;;;;;;;88.70;38.30;;;;;;;-2.72;75.11;98534.34;130667;1267;98755;-80
2023/11/28 03:46:11;;;;;;;87.00;38.70;;;;;;;-2.79;75.26;98532.70;130307;1264;98051;-82
2023/11/28 03:49:17;;;;;;;82.20;36.10;;;;;;;-2.84;74.62;98526.10;130457;1263;98163;-81
2023/11/28 03:52:22;;;;;;;79.40;34.70;;;;;;;-2.91;74.78;98524.05;130620;1267;98042;-81
2023/11/28 03:55:28;;;;;;;77.00;33.20;;;;;;;-2.94;75.23;98520.77;130719;1264;98421;-80
2023/11/28 03:58:34;;;;;;;77.70;32.40;;;;;;;-2.97;74.99;98516.99;130380;1263;99151;-81
2023/11/28 04:01:40;;;;;;;73.30;32.40;;;;;;;-3.00;74.94;98516.13;130202;1267;98032;-82
2023/11/28 04:04:45;;;;;;;72.40;32.20;;;;;;;-3.07;75.06;98519.64;130312;1267;99168;-80
2023/11/28 04:07:51;;;;;;;70.80;30.20;;;;;;;-3.12;74.97;98517.73;130061;1264;98070;-80
2023/11/28 04:10:57;;;;;;;100.80;40.50;;;;;;;-3.17;75.06;98513.51;129967;1268;98681;-81
2023/11/28 04:14:02;;;;;;;103.20;39.60;;;;;;;-3.20;75.11;98510.98;130083;1266;98048;-82
2023/11/28 04:17:09;;;;;;;94.30;37.30;;;;;;;-3.23;75.00;98510.66;130215;1263;97967;-82
2023/11/28 04:20:15;;;;;;;79.80;32.50;;;;;;;-3.27;75.02;98502.39;130052;1263;97939;-80
2023/11/28 04:23:20;;;;;;;63.60;29.60;;;;;;;-3.28;75.40;98501.06;130220;1264;99154;-82
2023/11/28 04:26:26;;;;;;;69.80;30.60;;;;;;;-3.28;75.18;98499.34;129994;1265;97970;-81
2023/11/28 04:29:31;;;;;;;71.70;29.10;;;;;;;-3.32;75.26;98495.98;130200;1264;97979;-80
2023/11/28 04:32:37;;;;;;;82.50;34.00;;;;;;;-3.33;75.10;98493.31;130176;1267;98756;-82
2023/11/28 04:35:43;;;;;;;78.80;34.10;;;;;;;-3.36;75.05;98483.90;130211;1266;99115;-80
2023/11/28 04:38:49;;;;;;;65.20;28.70;;;;;;;-3.38;75.43;98467.39;130308;1266;99180;-82
2023/11/28 04:41:55;;;;;;;66.80;29.00;;;;;;;-3.39;75.26;98463.27;130173;1265;98002;-82
2023/11/28 04:45:00;;;;;;;63.60;27.00;;;;;;;-3.37;75.28;98468.31;130050;1268;98089;-81
2023/11/28 04:48:06;;;;;;;73.60;29.20;;;;;;;-3.30;74.94;98471.84;130254;1265;97967;-83
2023/11/28 04:51:12;;;;;;;70.60;28.60;;;;;;;-3.22;75.35;98467.83;130169;1267;97983;-80
2023/11/28 04:54:18;;;;;;;73.10;30.50;;;;;;;-3.16;75.17;98468.91;130222;1280;97966;-81
2023/11/28 04:57:24;;;;;;;65.30;29.30;;;;;;;-3.08;75.08;98461.41;130087;1264;98028;-81
2023/11/28 05:00:30;;;;;;;71.60;31.00;;;;;;;-3.06;74.94;98459.15;130036;1265;98778;-81
2023/11/28 05:03:35;;;;;;;91.10;37.40;;;;;;;-3.06;75.00;98455.88;130484;1268;99295;-82
2023/11/28 05:06:41;;;;;;;87.60;36.70;;;;;;;-3.12;74.90;98454.91;130107;1264;97992;-81
2023/11/28 05:09:47;;;;;;;89.90;34.80;;;;;;;-3.12;75.05;98453.76;130222;1265;98776;-82
2023/11/28 05:12:53;;;;;;;96.80;36.60;;;;;;;-3.13;74.93;98444.40;130213;1265;98797;-81
2023/11/28 05:15:58;;;;;;;85.90;33.90;;;;;;;-3.15;74.94;98441.04;130062;1268;97953;-81
2023/11/28 05:19:05;;;;;;;87.60;33.00;;;;;;;-3.18;75.05;98442.48;130133;1265;98079;-82
2023/11/28 05:22:12;;;;;;;84.10;32.00;;;;;;;-3.20;75.13;98444.17;130202;1268;97994;-83
2023/11/28 05:25:18;;;;;;;74.50;31.10;;;;;;;-3.23;75.06;98440.04;130188;1264;98700;-83
2023/11/28 05:28:24;;;;;;;73.30;28.10;;;;;;;-3.24;75.08;98436.47;130083;1264;98951;-83
2023/11/28 05:31:29;;;;;;;75.90;31.30;;;;;;;-3.27;74.90;98434.41;130062;1268;99169;-81
2023/11/28 05:34:35;;;;;;;71.50;31.90;;;;;;;-3.32;74.92;98438.42;129970;1267;98134;-81
2023/11/28 05:37:41;;;;;;;69.50;30.10;;;;;;;-3.39;74.84;98438.58;130049;1264;98115;-81
2023/11/28 05:40:47;;;;;;;68.10;30.10;;;;;;;-3.40;75.17;98443.52;130039;1268;98056;-80
2023/11/28 05:43:53;;;;;;;72.00;30.70;;;;;;;-3.41;74.93;98441.00;130220;1264;97991;-83
2023/11/28 05:46:59;;;;;;;78.40;33.90;;;;;;;-3.45;75.16;98439.55;130142;1268;99147;-81
2023/11/28 05:50:06;;;;;;;78.90;33.90;;;;;;;-3.48;75.17;98441.30;130063;1280;99151;-82
2023/11/28 05:53:12;;;;;;;68.40;30.50;;;;;;;-3.49;75.16;98443.16;130078;1264;97986;-83
2023/11/28 05:56:18;;;;;;;70.10;31.40;;;;;;;-3.47;75.20;98448.21;130232;1265;98733;-81
2023/11/28 05:59:23;;;;;;;68.70;29.80;;;;;;;-3.50;75.13;98442.33;130160;1268;99148;-82
2023/11/28 06:02:30;;;;;;;69.00;30.20;;;;;;;-3.50;75.17;98438.00;130171;1264;98634;-82
2023/11/28 06:05:37;;;;;;;59.40;26.90;;;;;;;-3.48;75.33;98436.77;130252;1267;98777;-83
2023/11/28 06:08:44;;;;;;;56.00;25.70;;;;;;;-3.43;75.31;98439.58;129938;1271;99199;-81
2023/11/28 06:11:49;;;;;;;63.10;27.50;;;;;;;-3.38;75.16;98440.61;130126;1265;97970;-80
2023/11/28 06:14:55;;;;;;;77.90;31.00;;;;;;;-3.29;75.08;98442.96;130106;1267;99205;-83
2023/11/28 06:18:01;;;;;;;58.70;25.50;;;;;;;-3.21;75.20;98448.27;130367;1268;98027;-81
2023/11/28 06:21:09;;;;;;;70.70;28.90;;;;;;;-3.10;75.18;98445.59;130226;1264;99321;-83
2023/11/28 06:24:15;;;;;;;69.40;28.50;;;;;;;-3.03;74.94;98443.64;130217;1265;98070;-81
2023/11/28 06:27:21;;;;;;;68.50;28.40;;;;;;;-2.98;75.07;98441.17;130087;1264;98059;-83
2023/11/28 06:30:27;;;;;;;66.40;28.30;;;;;;;-2.92;75.14;98441.27;130080;1268;98082;-77
2023/11/28 06:33:32;;;;;;;79.20;29.80;;;;;;;-2.86;75.15;98443.12;129935;1267;98059;-78
2023/11/28 06:36:38;;;;;;;72.10;28.20;;;;;;;-2.82;75.28;98443.52;129773;1265;98054;-77
2023/11/28 06:39:45;;;;;;;76.90;31.00;;;;;;;-2.79;75.19;98442.74;129969;1264;98067;-78
2023/11/28 06:42:51;;;;;;;80.50;32.60;;;;;;;-2.72;75.22;98452.55;129933;1267;101468;-77
2023/11/28 06:46:00;;;;;;;69.50;30.20;;;;;;;-2.69;75.39;98458.96;129880;1268;97971;-76
2023/11/28 06:49:06;;;;;;;69.70;31.70;;;;;;;-2.67;75.35;98458.43;129921;1267;98045;-78
2023/11/28 06:52:13;;;;;;;65.80;31.00;;;;;;;-2.64;75.40;98459.91;130067;1265;97985;-76
2023/11/28 06:55:19;;;;;;;67.40;31.10;;;;;;;-2.59;75.80;98461.80;129998;1266;97964;-77
2023/11/28 06:58:25;;;;;;;69.60;30.30;;;;;;;-2.54;75.50;98460.41;129949;1265;97990;-77
2023/11/28 07:01:30;;;;;;;61.50;30.30;;;;;;;-2.49;75.76;98461.80;129939;1265;98797;-78
2023/11/28 07:04:36;;;;;;;67.90;31.70;;;;;;;-2.44;75.87;98464.71;129751;1265;99148;-77
2023/11/28 07:07:42;;;;;;;64.40;30.40;;;;;;;-2.41;75.82;98459.22;129745;1265;97964;-77
2023/11/28 07:10:47;;;;;;;65.60;30.90;;;;;;;-2.35;75.82;98456.76;129756;1268;98035;-80
2023/11/28 07:13:53;;;;;;;69.50;33.00;;;;;;;-2.30;75.80;98456.02;129791;1264;98026;-78
2023/11/28 07:16:58;;;;;;;77.70;37.40;;;;;;;-2.26;75.98;98456.23;129651;1268;99174;-78
2023/11/28 07:20:04;;;;;;;81.20;36.50;;;;;;;-2.21;76.14;98455.65;129712;1270;97996;-78
2023/11/28 07:23:09;;;;;;;98.00;41.90;;;;;;;-2.13;76.23;98454.02;129718;1264;98841;-77
2023/11/28 07:26:15;;;;;;;82.50;37.50;;;;;;;-2.08;76.20;98458.71;129807;1268;99148;-77
2023/11/28 07:29:21;;;;;;;69.70;31.10;;;;;;;-2.03;76.79;98461.03;129661;1264;98363;-78
2023/11/28 07:32:28;;;;;;;62.30;29.90;;;;;;;-1.87;76.58;98458.67;129763;1271;97989;-80
2023/11/28 07:35:33;;;;;;;58.50;29.00;;;;;;;-1.72;76.58;98459.73;129814;1268;99202;-78
2023/11/28 07:38:39;;;;;;;70.90;31.30;;;;;;;-1.59;76.64;98459.91;129762;1268;99230;-78
2023/11/28 07:41:44;;;;;;;60.70;28.90;;;;;;;-1.50;76.69;98459.60;129790;1265;99013;-78
2023/11/28 07:44:50;;;;;;;55.00;28.60;;;;;;;-1.43;76.74;98465.98;129762;1265;98067;-77
2023/11/28 07:47:58;;;;;;;55.80;27.90;;;;;;;-1.33;76.88;98466.30;129872;1268;99184;-78
2023/11/28 07:51:04;;;;;;;55.00;26.80;;;;;;;-1.25;76.66;98474.52;129735;1265;98784;-79
2023/11/28 07:54:10;;;;;;;58.40;28.90;;;;;;;-1.20;76.71;98471.04;129752;1268;98055;-78
2023/11/28 07:57:16;;;;;;;60.30;28.90;;;;;;;-1.17;76.83;98473.55;129765;1268;99068;-76
2023/11/28 08:00:22;;;;;;;69.20;30.40;;;;;;;-1.13;76.84;98472.70;129727;1265;98143;-77
2023/11/28 08:03:27;;;;;;;67.70;31.10;;;;;;;-1.10;76.75;98472.81;129830;1266;97961;-77
2023/11/28 08:06:33;;;;;;;58.90;28.80;;;;;;;-1.10;76.86;98469.54;129896;1265;98056;-77
2023/11/28 08:09:39;;;;;;;58.90;29.00;;;;;;;-1.08;76.82;98471.80;129906;1268;99157;-76
2023/11/28 08:12:44;;;;;;;58.50;28.10;;;;;;;-1.02;77.04;98468.89;129893;1268;99087;-78
2023/11/28 08:15:52;;;;;;;57.40;27.60;;;;;;;-0.98;77.03;98466.40;129902;1265;98689;-78
2023/11/28 08:18:59;;;;;;;57.00;27.70;;;;;;;-0.94;77.05;98461.95;129965;1264;98746;-78
2023/11/28 08:22:04;;;;;;;56.30;28.00;;;;;;;-0.98;76.92;98459.80;129968;1268;97980;-74
2023/11/28 08:25:10;;;;;;;55.30;28.50;;;;;;;-1.01;77.03;98464.21;129884;1269;98641;-78
2023/11/28 08:28:16;;;;;;;53.60;27.90;;;;;;;-0.97;77.04;98459.25;129873;1265;98090;-78
2023/11/28 08:31:21;;;;;;;60.50;30.20;;;;;;;-0.95;77.12;98460.95;129911;1265;98043;-78
2023/11/28 08:34:27;;;;;;;59.40;28.00;;;;;;;-0.95;77.33;98459.44;129959;1268;99183;-77
2023/11/28 08:37:33;;;;;;;55.70;27.20;;;;;;;-0.88;77.15;98465.30;129856;1265;98255;-78
2023/11/28 08:40:38;;;;;;;48.00;25.50;;;;;;;-0.80;77.10;98463.09;129862;1268;97967;-78
2023/11/28 08:43:44;;;;;;;53.20;26.60;;;;;;;-0.71;77.17;98457.79;131040;1266;98090;-78
2023/11/28 08:46:49;;;;;;;53.80;26.60;;;;;;;-0.59;77.17;98452.31;129864;1265;99059;-78
2023/11/28 08:49:59;;;;;;;50.80;25.60;;;;;;;-0.50;77.08;98445.08;129942;1268;98051;-79
2023/11/28 08:53:04;;;;;;;50.70;26.10;;;;;;;-0.43;77.10;98445.33;129892;1268;97994;-78
2023/11/28 08:56:14;;;;;;;50.30;26.40;;;;;;;-0.35;77.12;98442.13;129884;1264;97967;-78
2023/11/28 08:59:20;;;;;;;50.60;26.60;;;;;;;-0.35;76.77;98437.93;129873;1280;97964;-78
2023/11/28 09:02:26;;;;;;;49.90;26.80;;;;;;;-0.36;76.85;98437.52;129923;1265;97972;-76
2023/11/28 09:05:31;;;;;;;49.20;25.50;;;;;;;-0.40;76.64;98434.23;129857;1279;99225;-79
2023/11/28 09:08:37;;;;;;;49.70;26.50;;;;;;;-0.43;76.94;98434.51;129848;1268;99202;-79
2023/11/28 09:11:43;;;;;;;55.20;30.30;;;;;;;-0.44;76.76;98434.06;130025;1263;97965;-77
2023/11/28 09:14:48;;;;;;;49.20;25.30;;;;;;;-0.46;76.91;98432.66;129892;1266;97968;-78
2023/11/28 09:17:54;;;;;;;49.00;26.20;;;;;;;-0.50;76.63;98427.60;129844;1268;98465;-79
2023/11/28 09:20:59;;;;;;;136.10;62.30;;;;;;;-0.55;76.81;98425.59;129915;1270;99112;-78
2023/11/28 09:24:07;;;;;;;77.80;37.90;;;;;;;-0.59;76.81;98428.69;129823;1265;97987;-76
2023/11/28 09:27:13;;;;;;;54.50;28.60;;;;;;;-0.65;77.08;98423.25;129908;1268;98911;-76
2023/11/28 09:30:19;;;;;;;53.60;30.70;;;;;;;-0.66;77.03;98426.14;129793;1268;98144;-77
2023/11/28 09:33:25;;;;;;;55.90;31.20;;;;;;;-0.64;77.30;98420.38;129814;1268;98110;-77
2023/11/28 09:36:30;;;;;;;60.40;30.50;;;;;;;-0.64;77.16;98418.08;129766;1268;98793;-75
2023/11/28 09:39:36;;;;;;;56.20;28.60;;;;;;;-0.60;77.07;98417.80;129830;1266;98741;-77
2023/11/28 09:42:42;;;;;;;56.60;28.40;;;;;;;-0.54;77.39;98413.29;129884;1268;98079;-79
2023/11/28 09:45:48;;;;;;;48.30;25.20;;;;;;;-0.47;77.45;98409.02;129921;1268;98397;-77
2023/11/28 09:48:56;;;;;;;55.40;29.00;;;;;;;-0.41;76.95;98407.80;129865;1268;99130;-77
2023/11/28 09:52:03;;;;;;;56.70;28.00;;;;;;;-0.35;77.22;98404.00;129883;1268;99128;-77
2023/11/28 09:55:10;;;;;;;54.50;27.70;;;;;;;-0.26;77.14;98400.41;129951;1268;98083;-77
2023/11/28 09:58:17;;;;;;;55.80;29.10;;;;;;;-0.22;77.11;98398.16;129919;1268;97967;-78
2023/11/28 10:01:24;;;;;;;53.80;28.50;;;;;;;-0.15;77.21;98394.15;129904;1268;98636;-77
2023/11/28 10:04:30;;;;;;;52.20;27.10;;;;;;;-0.08;77.19;98387.39;130030;1265;99170;-78
2023/11/28 10:07:36;;;;;;;47.30;25.90;;;;;;;-0.07;76.98;98381.73;129847;1268;97964;-79
2023/11/28 10:10:44;;;;;;;53.90;31.10;;;;;;;-0.05;77.09;98380.48;129927;1268;98060;-79
2023/11/28 10:13:50;;;;;;;49.20;26.20;;;;;;;-0.06;77.06;98373.61;129931;1268;98058;-79
2023/11/28 10:16:55;;;;;;;50.70;27.70;;;;;;;-0.09;77.03;98368.21;129936;1268;99177;-78
2023/11/28 10:20:06;;;;;;;50.80;27.10;;;;;;;-0.07;77.13;98363.55;129955;1266;98780;-76
2023/11/28 10:23:15;;;;;;;54.30;29.10;;;;;;;-0.06;77.02;98362.23;130004;1266;97986;-81
2023/11/28 10:26:21;;;;;;;49.80;30.00;;;;;;;-0.08;77.02;98359.91;130122;1265;98118;-81
2023/11/28 10:29:30;;;;;;;49.00;26.80;;;;;;;-0.10;77.17;98357.83;130140;1270;99062;-85
2023/11/28 10:32:36;;;;;;;50.00;28.00;;;;;;;-0.08;77.23;98358.35;130258;1268;98090;-78
2023/11/28 10:35:44;;;;;;;49.30;27.40;;;;;;;-0.04;77.14;98356.94;130181;1265;97965;-84
2023/11/28 10:38:52;;;;;;;48.60;26.50;;;;;;;-0.03;77.17;98354.80;130162;1265;98193;-74
2023/11/28 10:41:58;;;;;;;62.40;33.90;;;;;;;-0.05;77.19;98353.34;129970;1268;98329;-78
2023/11/28 10:45:06;;;;;;;52.60;25.90;;;;;;;-0.01;77.36;98352.14;129878;1270;98371;-77
2023/11/28 10:48:12;;;;;;;43.10;22.90;;;;;;;0.07;77.28;98348.89;129861;1264;98901;-78
2023/11/28 10:51:22;;;;;;;46.40;25.10;;;;;;;0.14;77.26;98347.75;129940;1266;98640;-80
2023/11/28 10:54:34;;;;;;;51.50;27.30;;;;;;;0.22;76.92;98346.35;130118;1266;97991;-83
2023/11/28 10:57:49;;;;;;;54.30;29.40;;;;;;;0.27;76.89;98344.13;130039;1268;97969;-85
2023/11/28 11:00:56;;;;;;;49.00;25.80;;;;;;;0.31;76.75;98338.02;130069;1266;97986;-85
2023/11/28 11:04:02;;;;;;;51.30;27.80;;;;;;;0.33;76.61;98331.39;130083;1264;99089;-84
2023/11/28 11:07:08;;;;;;;51.60;28.70;;;;;;;0.34;76.87;98332.49;129989;1268;98074;-78
2023/11/28 11:10:14;;;;;;;47.10;26.40;;;;;;;0.37;76.85;98328.73;130343;1268;98012;-78
2023/11/28 11:13:32;;;;;;;48.90;26.10;;;;;;;0.35;76.39;98331.70;130221;1265;98682;-79
2023/11/28 11:16:43;;;;;;;51.10;26.20;;;;;;;0.32;76.59;98330.98;130348;1268;98749;-77
2023/11/28 11:19:52;;;;;;;48.50;25.30;;;;;;;0.32;76.50;98329.20;129978;1268;97990;-79
2023/11/28 11:23:01;;;;;;;46.80;25.10;;;;;;;0.30;76.67;98330.91;129939;1268;97964;-76
2023/11/28 11:26:08;;;;;;;45.30;23.80;;;;;;;0.31;76.47;98326.46;129964;1269;97972;-78
2023/11/28 11:29:37;;;;;;;46.50;23.30;;;;;;;0.27;76.35;98322.67;129926;1264;99196;-78
2023/11/28 11:32:43;;;;;;;43.20;23.70;;;;;;;0.16;76.36;98329.66;129948;1264;97993;-78
2023/11/28 11:36:07;;;;;;;49.80;26.00;;;;;;;0.17;76.45;98331.41;129972;1265;98689;-79
2023/11/28 11:39:20;;;;;;;48.70;25.00;;;;;;;0.13;76.49;98331.07;129989;1268;98778;-79
2023/11/28 11:42:27;;;;;;;46.50;25.10;;;;;;;0.13;76.59;98333.86;129852;1268;98077;-79
2023/11/28 11:45:37;;;;;;;52.20;25.50;;;;;;;0.09;76.46;98334.70;129840;1277;98009;-79
2023/11/28 11:48:43;;;;;;;49.60;23.80;;;;;;;0.06;76.36;98339.33;129883;1268;99062;-79
2023/11/28 11:51:48;;;;;;;47.90;23.50;;;;;;;0.09;76.34;98338.76;129955;1268;99157;-78
2023/11/28 11:55:03;;;;;;;39.30;20.10;;;;;;;0.16;76.25;98342.67;129867;1268;97983;-78
2023/11/28 11:58:08;;;;;;;52.30;25.30;;;;;;;0.25;75.88;98340.88;129747;1268;237534;-78
2023/11/28 12:01:14;;;;;;;47.30;24.50;;;;;;;0.30;76.13;98344.27;130050;1266;98005;-78
2023/11/28 12:04:20;;;;;;;44.50;23.30;;;;;;;0.35;76.03;98341.52;129948;1268;98092;-78
2023/11/28 12:07:26;;;;;;;54.90;31.30;;;;;;;0.35;75.83;98343.08;130232;1264;98085;-78
2023/11/28 12:10:32;;;;;;;51.10;24.90;;;;;;;0.37;75.91;98340.65;129960;1268;99160;-78
2023/11/28 12:13:39;;;;;;;49.70;25.50;;;;;;;0.36;75.16;98354.34;130007;1268;98061;-79
2023/11/28 12:16:48;;;;;;;48.40;25.40;;;;;;;0.26;74.97;98356.00;129891;1265;98638;-79
2023/11/28 12:19:55;;;;;;;52.00;27.00;;;;;;;0.21;75.45;98354.46;129990;1272;98013;-79
2023/11/28 12:23:01;;;;;;;47.60;25.00;;;;;;;0.19;75.41;98355.52;129838;1270;98983;-78
2023/11/28 12:26:08;;;;;;;48.10;25.20;;;;;;;0.15;75.00;98357.58;129846;1268;97967;-78
2023/11/28 12:29:15;;;;;;;49.90;26.30;;;;;;;0.07;75.09;98355.01;129922;1264;98064;-78
2023/11/28 12:32:21;;;;;;;46.30;25.90;;;;;;;0.02;75.28;98351.37;129956;1263;98385;-78
2023/11/28 12:35:29;;;;;;;49.30;24.80;;;;;;;-0.02;75.07;98349.56;129971;1264;98058;-79
2023/11/28 12:38:34;;;;;;;43.70;24.30;;;;;;;-0.06;75.22;98346.44;129971;1267;97964;-77
2023/11/28 12:41:42;;;;;;;62.20;28.20;;;;;;;-0.08;75.36;98346.50;129903;1268;97963;-78
2023/11/28 12:44:49;;;;;;;64.10;29.90;;;;;;;-0.17;75.26;98341.15;130016;1269;97962;-78
2023/11/28 12:47:54;;;;;;;79.80;28.90;;;;;;;-0.21;75.56;98347.27;129830;1267;99177;-80
2023/11/28 12:51:03;;;;;;;67.80;30.60;;;;;;;-0.29;75.46;98343.76;129916;1267;97980;-77
2023/11/28 12:54:11;;;;;;;50.90;25.20;;;;;;;-0.31;75.59;98339.61;129935;1270;97998;-79
2023/11/28 12:57:17;;;;;;;45.10;24.30;;;;;;;-0.32;75.65;98335.65;129888;1278;99542;-78
2023/11/28 13:00:23;;;;;;;55.30;24.60;;;;;;;-0.36;75.48;98333.69;129897;1278;98089;-77
2023/11/28 13:03:28;;;;;;;47.30;22.80;;;;;;;-0.37;75.47;98337.64;129844;1269;99040;-77
2023/11/28 13:06:35;;;;;;;46.50;23.50;;;;;;;-0.37;75.09;98339.02;129726;1268;99208;-78
2023/11/28 13:09:41;;;;;;;48.50;26.20;;;;;;;-0.33;75.30;98339.73;129729;1268;98022;-79
2023/11/28 13:12:47;;;;;;;44.00;22.60;;;;;;;-0.28;75.46;98342.60;129888;1278;99066;-79
2023/11/28 13:15:54;;;;;;;45.20;22.90;;;;;;;-0.24;75.18;98341.58;130203;1268;97977;-86
2023/11/28 13:19:00;;;;;;;42.40;22.70;;;;;;;-0.20;75.24;98341.76;130156;1268;98093;-82
2023/11/28 13:22:06;;;;;;;45.20;23.60;;;;;;;-0.16;75.28;98347.04;130293;1268;99062;-87
2023/11/28 13:25:12;;;;;;;49.00;23.20;;;;;;;-0.18;74.80;98352.41;130282;1265;98767;-89
2023/11/28 13:28:18;;;;;;;48.20;23.60;;;;;;;-0.24;74.90;98354.67;130482;1268;99228;-88
2023/11/28 13:31:24;;;;;;;46.10;22.90;;;;;;;-0.29;74.95;98354.80;130402;1268;98050;-90
2023/11/28 13:34:29;;;;;;;72.30;35.40;;;;;;;-0.34;75.03;98355.71;130394;1264;97978;-89
2023/11/28 13:37:36;;;;;;;58.00;28.10;;;;;;;-0.36;75.34;98360.25;130322;1268;98030;-88
2023/11/28 13:40:41;;;;;;;49.70;25.10;;;;;;;-0.37;75.27;98361.54;130399;1267;97993;-86
2023/11/28 13:43:48;;;;;;;48.80;24.80;;;;;;;-0.43;75.07;98361.70;130234;1268;98057;-89
2023/11/28 13:46:53;;;;;;;52.30;25.80;;;;;;;-0.46;75.15;98364.05;130069;1279;99177;-88
2023/11/28 13:50:00;;;;;;;58.80;28.40;;;;;;;-0.53;75.15;98367.61;130155;1268;98025;-87
2023/11/28 13:53:07;;;;;;;61.20;31.80;;;;;;;-0.60;75.11;98372.40;130206;1270;98054;-90
2023/11/28 13:56:13;;;;;;;62.50;31.80;;;;;;;-0.65;75.29;98372.23;130165;1268;98748;-86
2023/11/28 13:59:19;;;;;;;56.10;26.20;;;;;;;-0.66;75.18;98374.83;130178;1265;98057;-88
2023/11/28 14:02:24;;;;;;;61.00;30.30;;;;;;;-0.71;75.16;98372.42;130463;1265;98045;-88
2023/11/28 14:05:30;;;;;;;91.90;44.10;;;;;;;-0.72;75.55;98373.06;130325;1266;98060;-88
2023/11/28 14:08:35;;;;;;;54.30;25.70;;;;;;;-0.65;75.62;98374.23;130327;1264;97978;-87